sensor_id;sensor_type;location;lat;lon;timestamp;temperature;humidity
12152;DHT22;6139;51.274;7.128;2022-07-06T00:00:54;15.20;99.90
12152;DHT22;6139;51.274;7.128;2022-07-06T00:01:56;15.20;99.90
12152;DHT22;6139;51.274;7.128;2022-07-06T00:02:57;15.20;99.90
12152;DHT22;6139;51.274;7.128;2022-07-06T00:03:59;15.20;99.90
12152;DHT22;6139;51.274;7.128;2022-07-06T00:05:01;15.20;99.90
12152;DHT22;6139;51.274;7.128;2022-07-06T00:06:03;15.20;99.90
12152;DHT22;6139;51.274;7.128;2022-07-06T00:07:04;15.20;99.90
12152;DHT22;6139;51.274;7.128;2022-07-06T00:08:06;15.20;99.90
12152;DHT22;6139;51.274;7.128;2022-07-06T00:09:09;15.10;99.90
12152;DHT22;6139;51.274;7.128;2022-07-06T00:10:11;15.10;99.90
12152;DHT22;6139;51.274;7.128;2022-07-06T00:11:12;15.10;99.90
12152;DHT22;6139;51.274;7.128;2022-07-06T00:12:14;15.10;99.90
12152;DHT22;6139;51.274;7.128;2022-07-06T00:13:15;15.10;99.90
12152;DHT22;6139;51.274;7.128;2022-07-06T00:14:16;15.10;99.90
12152;DHT22;6139;51.274;7.128;2022-07-06T00:15:17;15.10;99.90
12152;DHT22;6139;51.274;7.128;2022-07-06T00:16:20;15.10;99.90
12152;DHT22;6139;51.274;7.128;2022-07-06T00:17:21;15.10;99.90
12152;DHT22;6139;51.274;7.128;2022-07-06T00:18:23;15.00;99.90
12152;DHT22;6139;51.274;7.128;2022-07-06T00:19:24;15.00;99.90
12152;DHT22;6139;51.274;7.128;2022-07-06T00:20:26;15.00;99.90
12152;DHT22;6139;51.274;7.128;2022-07-06T00:21:27;15.00;99.90
12152;DHT22;6139;51.274;7.128;2022-07-06T00:22:29;14.90;99.90
12152;DHT22;6139;51.274;7.128;2022-07-06T00:23:30;14.90;99.90
12152;DHT22;6139;51.274;7.128;2022-07-06T00:24:34;14.80;99.90
12152;DHT22;6139;51.274;7.128;2022-07-06T00:25:35;14.80;99.90
12152;DHT22;6139;51.274;7.128;2022-07-06T00:26:37;14.80;99.90
12152;DHT22;6139;51.274;7.128;2022-07-06T00:27:38;14.80;99.90
12152;DHT22;6139;51.274;7.128;2022-07-06T00:28:40;14.80;99.90
12152;DHT22;6139;51.274;7.128;2022-07-06T00:29:42;14.80;99.90
12152;DHT22;6139;51.274;7.128;2022-07-06T00:30:44;14.80;99.90
12152;DHT22;6139;51.274;7.128;2022-07-06T00:31:45;14.80;99.90
12152;DHT22;6139;51.274;7.128;2022-07-06T00:32:47;14.70;99.90
12152;DHT22;6139;51.274;7.128;2022-07-06T00:33:49;14.70;99.90
12152;DHT22;6139;51.274;7.128;2022-07-06T00:34:51;14.70;99.90
12152;DHT22;6139;51.274;7.128;2022-07-06T00:35:52;14.70;99.90
12152;DHT22;6139;51.274;7.128;2022-07-06T00:36:54;14.70;99.90
12152;DHT22;6139;51.274;7.128;2022-07-06T00:37:55;14.60;99.90
12152;DHT22;6139;51.274;7.128;2022-07-06T00:38:57;14.60;99.90
12152;DHT22;6139;51.274;7.128;2022-07-06T00:40:00;14.50;99.90
12152;DHT22;6139;51.274;7.128;2022-07-06T00:41:02;14.50;99.90
12152;DHT22;6139;51.274;7.128;2022-07-06T00:42:03;14.50;99.90
12152;DHT22;6139;51.274;7.128;2022-07-06T00:43:06;14.40;99.90
12152;DHT22;6139;51.274;7.128;2022-07-06T00:44:08;14.40;99.90
12152;DHT22;6139;51.274;7.128;2022-07-06T00:45:11;14.40;99.90
12152;DHT22;6139;51.274;7.128;2022-07-06T00:46:13;14.40;99.90
12152;DHT22;6139;51.274;7.128;2022-07-06T00:47:15;14.40;99.90
12152;DHT22;6139;51.274;7.128;2022-07-06T00:48:17;14.40;99.90
12152;DHT22;6139;51.274;7.128;2022-07-06T00:49:18;14.40;99.90
12152;DHT22;6139;51.274;7.128;2022-07-06T00:50:37;14.40;99.90
12152;DHT22;6139;51.274;7.128;2022-07-06T00:51:39;14.40;99.90
12152;DHT22;6139;51.274;7.128;2022-07-06T00:52:41;14.40;99.90
12152;DHT22;6139;51.274;7.128;2022-07-06T00:53:44;14.30;99.90
12152;DHT22;6139;51.274;7.128;2022-07-06T00:54:46;14.30;99.90
12152;DHT22;6139;51.274;7.128;2022-07-06T00:55:50;14.30;99.90
12152;DHT22;6139;51.274;7.128;2022-07-06T00:56:51;14.30;99.90
12152;DHT22;6139;51.274;7.128;2022-07-06T00:57:54;14.30;99.90
12152;DHT22;6139;51.274;7.128;2022-07-06T00:58:55;14.30;99.90
12152;DHT22;6139;51.274;7.128;2022-07-06T00:59:57;14.30;99.90
12152;DHT22;6139;51.274;7.128;2022-07-06T01:00:59;14.30;99.90
12152;DHT22;6139;51.274;7.128;2022-07-06T01:02:01;14.30;99.90
12152;DHT22;6139;51.274;7.128;2022-07-06T01:03:02;14.20;99.90
12152;DHT22;6139;51.274;7.128;2022-07-06T01:04:04;14.20;99.90
12152;DHT22;6139;51.274;7.128;2022-07-06T01:05:07;14.20;99.90
12152;DHT22;6139;51.274;7.128;2022-07-06T01:06:10;14.20;99.90
12152;DHT22;6139;51.274;7.128;2022-07-06T01:07:11;14.10;99.90
12152;DHT22;6139;51.274;7.128;2022-07-06T01:08:13;14.10;99.90
12152;DHT22;6139;51.274;7.128;2022-07-06T01:09:16;14.10;99.90
12152;DHT22;6139;51.274;7.128;2022-07-06T01:10:19;14.10;99.90
12152;DHT22;6139;51.274;7.128;2022-07-06T01:11:23;14.10;99.90
12152;DHT22;6139;51.274;7.128;2022-07-06T01:12:25;14.10;99.90
12152;DHT22;6139;51.274;7.128;2022-07-06T01:13:27;14.00;99.90
12152;DHT22;6139;51.274;7.128;2022-07-06T01:14:32;14.00;99.90
12152;DHT22;6139;51.274;7.128;2022-07-06T01:15:33;14.00;99.90
12152;DHT22;6139;51.274;7.128;2022-07-06T01:16:35;14.00;99.90
12152;DHT22;6139;51.274;7.128;2022-07-06T01:17:38;14.00;99.90
12152;DHT22;6139;51.274;7.128;2022-07-06T01:18:41;14.00;99.90
12152;DHT22;6139;51.274;7.128;2022-07-06T01:19:42;14.00;99.90
12152;DHT22;6139;51.274;7.128;2022-07-06T01:20:46;14.00;99.90
12152;DHT22;6139;51.274;7.128;2022-07-06T01:21:47;14.00;99.90
12152;DHT22;6139;51.274;7.128;2022-07-06T01:22:50;14.00;99.90
12152;DHT22;6139;51.274;7.128;2022-07-06T01:23:52;14.00;99.90
12152;DHT22;6139;51.274;7.128;2022-07-06T01:24:54;14.00;99.90
12152;DHT22;6139;51.274;7.128;2022-07-06T01:25:55;14.00;99.90
12152;DHT22;6139;51.274;7.128;2022-07-06T01:26:57;14.00;99.90
12152;DHT22;6139;51.274;7.128;2022-07-06T01:27:58;14.00;99.90
12152;DHT22;6139;51.274;7.128;2022-07-06T01:29:00;14.00;99.90
12152;DHT22;6139;51.274;7.128;2022-07-06T01:30:02;14.00;99.90
12152;DHT22;6139;51.274;7.128;2022-07-06T01:31:04;13.90;99.90
12152;DHT22;6139;51.274;7.128;2022-07-06T01:32:06;13.90;99.90
12152;DHT22;6139;51.274;7.128;2022-07-06T01:33:08;13.90;99.90
12152;DHT22;6139;51.274;7.128;2022-07-06T01:34:09;13.90;99.90
12152;DHT22;6139;51.274;7.128;2022-07-06T01:35:14;13.90;99.90
12152;DHT22;6139;51.274;7.128;2022-07-06T01:36:17;13.90;99.90
12152;DHT22;6139;51.274;7.128;2022-07-06T01:37:19;13.90;99.90
12152;DHT22;6139;51.274;7.128;2022-07-06T01:38:22;13.90;99.90
12152;DHT22;6139;51.274;7.128;2022-07-06T01:39:24;13.90;99.90
12152;DHT22;6139;51.274;7.128;2022-07-06T01:40:25;13.90;99.90
12152;DHT22;6139;51.274;7.128;2022-07-06T01:41:27;13.80;99.90
12152;DHT22;6139;51.274;7.128;2022-07-06T01:42:28;13.80;99.90
12152;DHT22;6139;51.274;7.128;2022-07-06T01:43:30;13.80;99.90
12152;DHT22;6139;51.274;7.128;2022-07-06T01:44:31;13.80;99.90
12152;DHT22;6139;51.274;7.128;2022-07-06T01:45:34;13.70;99.90
12152;DHT22;6139;51.274;7.128;2022-07-06T01:46:35;13.80;99.90
12152;DHT22;6139;51.274;7.128;2022-07-06T01:47:37;13.70;99.90
12152;DHT22;6139;51.274;7.128;2022-07-06T01:48:39;13.70;99.90
12152;DHT22;6139;51.274;7.128;2022-07-06T01:49:41;13.70;99.90
12152;DHT22;6139;51.274;7.128;2022-07-06T01:50:42;13.70;99.90
12152;DHT22;6139;51.274;7.128;2022-07-06T01:51:45;13.70;99.90
12152;DHT22;6139;51.274;7.128;2022-07-06T01:52:47;13.70;99.90
12152;DHT22;6139;51.274;7.128;2022-07-06T01:53:49;13.70;99.90
12152;DHT22;6139;51.274;7.128;2022-07-06T01:54:52;13.60;99.90
12152;DHT22;6139;51.274;7.128;2022-07-06T01:55:55;13.60;99.90
12152;DHT22;6139;51.274;7.128;2022-07-06T01:56:56;13.60;99.90
12152;DHT22;6139;51.274;7.128;2022-07-06T01:57:58;13.60;99.90
12152;DHT22;6139;51.274;7.128;2022-07-06T01:59:00;13.60;99.90
12152;DHT22;6139;51.274;7.128;2022-07-06T02:00:05;13.50;99.90
12152;DHT22;6139;51.274;7.128;2022-07-06T02:01:15;13.60;99.90
12152;DHT22;6139;51.274;7.128;2022-07-06T02:02:17;13.50;99.90
12152;DHT22;6139;51.274;7.128;2022-07-06T02:03:19;13.50;99.90
12152;DHT22;6139;51.274;7.128;2022-07-06T02:04:20;13.50;99.90
12152;DHT22;6139;51.274;7.128;2022-07-06T02:05:23;13.50;99.90
12152;DHT22;6139;51.274;7.128;2022-07-06T02:06:23;13.50;99.90
12152;DHT22;6139;51.274;7.128;2022-07-06T02:07:27;13.40;99.90
12152;DHT22;6139;51.274;7.128;2022-07-06T02:08:28;13.40;99.90
12152;DHT22;6139;51.274;7.128;2022-07-06T02:09:30;13.40;99.90
12152;DHT22;6139;51.274;7.128;2022-07-06T02:10:31;13.40;99.90
12152;DHT22;6139;51.274;7.128;2022-07-06T02:11:34;13.30;99.90
12152;DHT22;6139;51.274;7.128;2022-07-06T02:12:35;13.30;99.90
12152;DHT22;6139;51.274;7.128;2022-07-06T02:13:37;13.30;99.90
12152;DHT22;6139;51.274;7.128;2022-07-06T02:14:40;13.30;99.90
12152;DHT22;6139;51.274;7.128;2022-07-06T02:15:42;13.20;99.90
12152;DHT22;6139;51.274;7.128;2022-07-06T02:16:43;13.20;99.90
12152;DHT22;6139;51.274;7.128;2022-07-06T02:17:45;13.20;99.90
12152;DHT22;6139;51.274;7.128;2022-07-06T02:18:46;13.20;99.90
12152;DHT22;6139;51.274;7.128;2022-07-06T02:19:48;13.20;99.90
12152;DHT22;6139;51.274;7.128;2022-07-06T02:20:50;13.20;99.90
12152;DHT22;6139;51.274;7.128;2022-07-06T02:21:51;13.20;99.90
12152;DHT22;6139;51.274;7.128;2022-07-06T02:22:54;13.20;99.90
12152;DHT22;6139;51.274;7.128;2022-07-06T02:23:56;13.20;99.90
12152;DHT22;6139;51.274;7.128;2022-07-06T02:24:58;13.10;99.90
12152;DHT22;6139;51.274;7.128;2022-07-06T02:26:00;13.20;99.90
12152;DHT22;6139;51.274;7.128;2022-07-06T02:27:03;13.10;99.90
12152;DHT22;6139;51.274;7.128;2022-07-06T02:28:05;13.10;99.90
12152;DHT22;6139;51.274;7.128;2022-07-06T02:29:07;13.10;99.90
12152;DHT22;6139;51.274;7.128;2022-07-06T02:30:09;13.10;99.90
12152;DHT22;6139;51.274;7.128;2022-07-06T02:31:12;13.00;99.90
12152;DHT22;6139;51.274;7.128;2022-07-06T02:32:14;13.10;99.90
12152;DHT22;6139;51.274;7.128;2022-07-06T02:33:16;13.00;99.90
12152;DHT22;6139;51.274;7.128;2022-07-06T02:34:18;13.00;99.90
12152;DHT22;6139;51.274;7.128;2022-07-06T02:35:19;13.00;99.90
12152;DHT22;6139;51.274;7.128;2022-07-06T02:36:21;13.00;99.90
12152;DHT22;6139;51.274;7.128;2022-07-06T02:37:22;13.00;99.90
12152;DHT22;6139;51.274;7.128;2022-07-06T02:38:25;13.00;99.90
12152;DHT22;6139;51.274;7.128;2022-07-06T02:39:27;13.00;99.90
12152;DHT22;6139;51.274;7.128;2022-07-06T02:40:29;13.00;99.90
12152;DHT22;6139;51.274;7.128;2022-07-06T02:41:30;13.00;99.90
12152;DHT22;6139;51.274;7.128;2022-07-06T02:42:32;13.00;99.90
12152;DHT22;6139;51.274;7.128;2022-07-06T02:43:34;13.00;99.90
12152;DHT22;6139;51.274;7.128;2022-07-06T02:44:36;12.90;99.90
12152;DHT22;6139;51.274;7.128;2022-07-06T02:45:37;12.90;99.90
12152;DHT22;6139;51.274;7.128;2022-07-06T02:46:39;12.90;99.90
12152;DHT22;6139;51.274;7.128;2022-07-06T02:47:40;12.90;99.90
12152;DHT22;6139;51.274;7.128;2022-07-06T02:48:42;12.90;99.90
12152;DHT22;6139;51.274;7.128;2022-07-06T02:49:44;12.90;99.90
12152;DHT22;6139;51.274;7.128;2022-07-06T02:50:45;12.90;99.90
12152;DHT22;6139;51.274;7.128;2022-07-06T02:51:47;12.90;99.90
12152;DHT22;6139;51.274;7.128;2022-07-06T02:52:49;12.90;99.90
12152;DHT22;6139;51.274;7.128;2022-07-06T02:53:51;12.90;99.90
12152;DHT22;6139;51.274;7.128;2022-07-06T02:54:53;13.00;99.90
12152;DHT22;6139;51.274;7.128;2022-07-06T02:55:54;13.00;99.90
12152;DHT22;6139;51.274;7.128;2022-07-06T02:56:56;13.00;99.90
12152;DHT22;6139;51.274;7.128;2022-07-06T02:57:57;13.00;99.90
12152;DHT22;6139;51.274;7.128;2022-07-06T02:59:00;13.00;99.90
12152;DHT22;6139;51.274;7.128;2022-07-06T03:00:01;13.00;99.90
12152;DHT22;6139;51.274;7.128;2022-07-06T03:01:06;13.00;99.90
12152;DHT22;6139;51.274;7.128;2022-07-06T03:02:08;13.00;99.90
12152;DHT22;6139;51.274;7.128;2022-07-06T03:03:10;13.10;99.90
12152;DHT22;6139;51.274;7.128;2022-07-06T03:04:12;13.00;99.90
12152;DHT22;6139;51.274;7.128;2022-07-06T03:05:14;13.10;99.90
12152;DHT22;6139;51.274;7.128;2022-07-06T03:06:15;13.00;99.90
12152;DHT22;6139;51.274;7.128;2022-07-06T03:07:17;13.10;99.90
12152;DHT22;6139;51.274;7.128;2022-07-06T03:08:19;13.10;99.90
12152;DHT22;6139;51.274;7.128;2022-07-06T03:09:22;13.10;99.90
12152;DHT22;6139;51.274;7.128;2022-07-06T03:10:23;13.20;99.90
12152;DHT22;6139;51.274;7.128;2022-07-06T03:11:25;13.10;99.90
12152;DHT22;6139;51.274;7.128;2022-07-06T03:12:27;13.10;99.90
12152;DHT22;6139;51.274;7.128;2022-07-06T03:13:29;13.10;99.90
12152;DHT22;6139;51.274;7.128;2022-07-06T03:14:31;13.10;99.90
12152;DHT22;6139;51.274;7.128;2022-07-06T03:15:33;13.10;99.90
12152;DHT22;6139;51.274;7.128;2022-07-06T03:16:34;13.10;99.90
12152;DHT22;6139;51.274;7.128;2022-07-06T03:17:36;13.00;99.90
12152;DHT22;6139;51.274;7.128;2022-07-06T03:18:37;13.00;99.90
12152;DHT22;6139;51.274;7.128;2022-07-06T03:19:39;13.00;99.90
12152;DHT22;6139;51.274;7.128;2022-07-06T03:20:40;13.00;99.90
12152;DHT22;6139;51.274;7.128;2022-07-06T03:21:44;13.00;99.90
12152;DHT22;6139;51.274;7.128;2022-07-06T03:26:15;12.90;99.90
12152;DHT22;6139;51.274;7.128;2022-07-06T03:27:18;12.90;99.90
12152;DHT22;6139;51.274;7.128;2022-07-06T03:28:19;12.90;99.90
12152;DHT22;6139;51.274;7.128;2022-07-06T03:29:21;12.90;99.90
12152;DHT22;6139;51.274;7.128;2022-07-06T03:30:22;12.90;99.90
12152;DHT22;6139;51.274;7.128;2022-07-06T03:31:28;12.80;99.90
12152;DHT22;6139;51.274;7.128;2022-07-06T03:32:29;12.80;99.90
12152;DHT22;6139;51.274;7.128;2022-07-06T03:33:32;12.80;99.90
12152;DHT22;6139;51.274;7.128;2022-07-06T03:34:33;12.80;99.90
12152;DHT22;6139;51.274;7.128;2022-07-06T03:35:36;12.80;99.90
12152;DHT22;6139;51.274;7.128;2022-07-06T03:36:39;12.80;99.90
12152;DHT22;6139;51.274;7.128;2022-07-06T03:37:42;12.80;99.90
12152;DHT22;6139;51.274;7.128;2022-07-06T03:38:43;12.80;99.90
12152;DHT22;6139;51.274;7.128;2022-07-06T03:39:45;12.80;99.90
12152;DHT22;6139;51.274;7.128;2022-07-06T03:40:46;12.80;99.90
12152;DHT22;6139;51.274;7.128;2022-07-06T03:41:50;12.80;99.90
12152;DHT22;6139;51.274;7.128;2022-07-06T03:42:51;12.80;99.90
12152;DHT22;6139;51.274;7.128;2022-07-06T03:43:54;12.80;99.90
12152;DHT22;6139;51.274;7.128;2022-07-06T03:44:55;12.80;99.90
12152;DHT22;6139;51.274;7.128;2022-07-06T03:45:57;12.80;99.90
12152;DHT22;6139;51.274;7.128;2022-07-06T03:46:58;12.80;99.90
12152;DHT22;6139;51.274;7.128;2022-07-06T03:48:01;12.80;99.90
12152;DHT22;6139;51.274;7.128;2022-07-06T03:49:04;12.80;99.90
12152;DHT22;6139;51.274;7.128;2022-07-06T03:50:08;12.80;99.90
12152;DHT22;6139;51.274;7.128;2022-07-06T03:51:09;12.90;99.90
12152;DHT22;6139;51.274;7.128;2022-07-06T03:52:11;12.90;99.90
12152;DHT22;6139;51.274;7.128;2022-07-06T03:53:22;12.90;99.90
12152;DHT22;6139;51.274;7.128;2022-07-06T03:54:24;12.90;99.90
12152;DHT22;6139;51.274;7.128;2022-07-06T03:55:30;12.90;99.90
12152;DHT22;6139;51.274;7.128;2022-07-06T03:56:36;13.00;99.90
12152;DHT22;6139;51.274;7.128;2022-07-06T03:57:44;12.90;99.90
12152;DHT22;6139;51.274;7.128;2022-07-06T03:58:50;12.90;99.90
12152;DHT22;6139;51.274;7.128;2022-07-06T03:59:51;12.90;99.90
12152;DHT22;6139;51.274;7.128;2022-07-06T04:00:54;12.90;99.90
12152;DHT22;6139;51.274;7.128;2022-07-06T04:01:55;12.90;99.90
12152;DHT22;6139;51.274;7.128;2022-07-06T04:02:57;12.90;99.90
12152;DHT22;6139;51.274;7.128;2022-07-06T04:04:02;12.90;99.90
12152;DHT22;6139;51.274;7.128;2022-07-06T04:05:06;12.80;99.90
12152;DHT22;6139;51.274;7.128;2022-07-06T04:06:07;12.80;99.90
12152;DHT22;6139;51.274;7.128;2022-07-06T04:07:10;12.80;99.90
12152;DHT22;6139;51.274;7.128;2022-07-06T04:08:11;12.80;99.90
12152;DHT22;6139;51.274;7.128;2022-07-06T04:09:18;12.80;99.90
12152;DHT22;6139;51.274;7.128;2022-07-06T04:10:20;12.80;99.90
12152;DHT22;6139;51.274;7.128;2022-07-06T04:11:23;12.80;99.90
12152;DHT22;6139;51.274;7.128;2022-07-06T04:12:24;12.80;99.90
12152;DHT22;6139;51.274;7.128;2022-07-06T04:13:28;12.80;99.90
12152;DHT22;6139;51.274;7.128;2022-07-06T04:14:29;12.80;99.90
12152;DHT22;6139;51.274;7.128;2022-07-06T04:15:31;12.80;99.90
12152;DHT22;6139;51.274;7.128;2022-07-06T04:16:34;12.80;99.90
12152;DHT22;6139;51.274;7.128;2022-07-06T04:17:35;12.80;99.90
12152;DHT22;6139;51.274;7.128;2022-07-06T04:19:01;12.80;99.90
12152;DHT22;6139;51.274;7.128;2022-07-06T04:20:03;12.80;99.90
12152;DHT22;6139;51.274;7.128;2022-07-06T04:21:05;12.90;99.90
12152;DHT22;6139;51.274;7.128;2022-07-06T04:22:09;12.90;99.90
12152;DHT22;6139;51.274;7.128;2022-07-06T04:23:12;12.90;99.90
12152;DHT22;6139;51.274;7.128;2022-07-06T04:24:14;12.90;99.90
12152;DHT22;6139;51.274;7.128;2022-07-06T04:25:17;12.90;99.90
12152;DHT22;6139;51.274;7.128;2022-07-06T04:26:18;12.90;99.90
12152;DHT22;6139;51.274;7.128;2022-07-06T04:27:21;12.90;99.90
12152;DHT22;6139;51.274;7.128;2022-07-06T04:28:22;12.90;99.90
12152;DHT22;6139;51.274;7.128;2022-07-06T04:29:26;12.90;99.90
12152;DHT22;6139;51.274;7.128;2022-07-06T04:30:27;13.00;99.90
12152;DHT22;6139;51.274;7.128;2022-07-06T04:31:29;13.00;99.90
12152;DHT22;6139;51.274;7.128;2022-07-06T04:32:31;13.00;99.90
12152;DHT22;6139;51.274;7.128;2022-07-06T04:33:34;13.00;99.90
12152;DHT22;6139;51.274;7.128;2022-07-06T04:34:34;13.00;99.90
12152;DHT22;6139;51.274;7.128;2022-07-06T04:35:36;13.00;99.90
12152;DHT22;6139;51.274;7.128;2022-07-06T04:36:37;13.00;99.90
12152;DHT22;6139;51.274;7.128;2022-07-06T04:37:40;13.00;99.90
12152;DHT22;6139;51.274;7.128;2022-07-06T04:38:41;13.00;99.90
12152;DHT22;6139;51.274;7.128;2022-07-06T04:39:45;13.00;99.90
12152;DHT22;6139;51.274;7.128;2022-07-06T04:40:46;13.00;99.90
12152;DHT22;6139;51.274;7.128;2022-07-06T04:41:50;13.10;99.90
12152;DHT22;6139;51.274;7.128;2022-07-06T04:42:51;13.10;99.90
12152;DHT22;6139;51.274;7.128;2022-07-06T04:43:54;13.10;99.90
12152;DHT22;6139;51.274;7.128;2022-07-06T04:44:57;13.10;99.90
12152;DHT22;6139;51.274;7.128;2022-07-06T04:45:59;13.10;99.90
12152;DHT22;6139;51.274;7.128;2022-07-06T04:47:03;13.10;99.90
12152;DHT22;6139;51.274;7.128;2022-07-06T04:48:05;13.20;99.90
12152;DHT22;6139;51.274;7.128;2022-07-06T04:49:09;13.20;99.90
12152;DHT22;6139;51.274;7.128;2022-07-06T04:50:12;13.10;99.90
12152;DHT22;6139;51.274;7.128;2022-07-06T04:51:14;13.20;99.90
12152;DHT22;6139;51.274;7.128;2022-07-06T04:52:15;13.20;99.90
12152;DHT22;6139;51.274;7.128;2022-07-06T04:53:18;13.20;99.90
12152;DHT22;6139;51.274;7.128;2022-07-06T04:54:19;13.20;99.90
12152;DHT22;6139;51.274;7.128;2022-07-06T04:55:20;13.20;99.90
12152;DHT22;6139;51.274;7.128;2022-07-06T04:56:22;13.30;99.90
12152;DHT22;6139;51.274;7.128;2022-07-06T04:57:24;13.30;99.90
12152;DHT22;6139;51.274;7.128;2022-07-06T04:58:27;13.30;99.90
12152;DHT22;6139;51.274;7.128;2022-07-06T04:59:29;13.30;99.90
12152;DHT22;6139;51.274;7.128;2022-07-06T05:00:31;13.30;99.90
12152;DHT22;6139;51.274;7.128;2022-07-06T05:01:33;13.40;99.90
12152;DHT22;6139;51.274;7.128;2022-07-06T05:02:34;13.40;99.90
12152;DHT22;6139;51.274;7.128;2022-07-06T05:03:36;13.40;99.90
12152;DHT22;6139;51.274;7.128;2022-07-06T05:04:42;13.40;99.90
12152;DHT22;6139;51.274;7.128;2022-07-06T05:05:43;13.40;99.90
12152;DHT22;6139;51.274;7.128;2022-07-06T05:06:45;13.50;99.90
12152;DHT22;6139;51.274;7.128;2022-07-06T05:07:46;13.50;99.90
12152;DHT22;6139;51.274;7.128;2022-07-06T05:08:48;13.50;99.90
12152;DHT22;6139;51.274;7.128;2022-07-06T05:09:50;13.50;99.90
12152;DHT22;6139;51.274;7.128;2022-07-06T05:10:52;13.50;99.90
12152;DHT22;6139;51.274;7.128;2022-07-06T05:11:55;13.50;99.90
12152;DHT22;6139;51.274;7.128;2022-07-06T05:12:57;13.50;99.90
12152;DHT22;6139;51.274;7.128;2022-07-06T05:14:00;13.50;99.90
12152;DHT22;6139;51.274;7.128;2022-07-06T05:15:02;13.50;99.90
12152;DHT22;6139;51.274;7.128;2022-07-06T05:16:06;13.50;99.90
12152;DHT22;6139;51.274;7.128;2022-07-06T05:17:07;13.40;99.90
12152;DHT22;6139;51.274;7.128;2022-07-06T05:18:09;13.50;99.90
12152;DHT22;6139;51.274;7.128;2022-07-06T05:19:10;13.50;99.90
12152;DHT22;6139;51.274;7.128;2022-07-06T05:20:12;13.50;99.90
12152;DHT22;6139;51.274;7.128;2022-07-06T05:21:17;13.50;99.90
12152;DHT22;6139;51.274;7.128;2022-07-06T05:22:18;13.60;99.90
12152;DHT22;6139;51.274;7.128;2022-07-06T05:23:20;13.60;99.90
12152;DHT22;6139;51.274;7.128;2022-07-06T05:24:22;13.60;99.90
12152;DHT22;6139;51.274;7.128;2022-07-06T05:25:24;13.60;99.90
12152;DHT22;6139;51.274;7.128;2022-07-06T05:26:25;13.60;99.90
12152;DHT22;6139;51.274;7.128;2022-07-06T05:27:27;13.70;99.90
12152;DHT22;6139;51.274;7.128;2022-07-06T05:28:29;13.70;99.90
12152;DHT22;6139;51.274;7.128;2022-07-06T05:29:31;13.70;99.90
12152;DHT22;6139;51.274;7.128;2022-07-06T05:30:32;13.70;99.90
12152;DHT22;6139;51.274;7.128;2022-07-06T05:31:35;13.70;99.90
12152;DHT22;6139;51.274;7.128;2022-07-06T05:32:37;13.70;99.90
12152;DHT22;6139;51.274;7.128;2022-07-06T05:33:40;13.70;99.90
12152;DHT22;6139;51.274;7.128;2022-07-06T05:34:42;13.80;99.90
12152;DHT22;6139;51.274;7.128;2022-07-06T05:35:45;13.80;99.90
12152;DHT22;6139;51.274;7.128;2022-07-06T05:36:46;13.70;99.90
12152;DHT22;6139;51.274;7.128;2022-07-06T05:37:48;13.80;99.90
12152;DHT22;6139;51.274;7.128;2022-07-06T05:38:50;13.80;99.90
12152;DHT22;6139;51.274;7.128;2022-07-06T05:39:52;13.80;99.90
12152;DHT22;6139;51.274;7.128;2022-07-06T05:40:54;13.80;99.90
12152;DHT22;6139;51.274;7.128;2022-07-06T05:41:56;13.80;99.90
12152;DHT22;6139;51.274;7.128;2022-07-06T05:42:57;13.90;99.90
12152;DHT22;6139;51.274;7.128;2022-07-06T05:43:59;13.90;99.90
12152;DHT22;6139;51.274;7.128;2022-07-06T05:45:00;13.90;99.90
12152;DHT22;6139;51.274;7.128;2022-07-06T05:46:04;13.90;99.90
12152;DHT22;6139;51.274;7.128;2022-07-06T05:47:09;14.00;99.90
12152;DHT22;6139;51.274;7.128;2022-07-06T05:48:29;14.00;99.90
12152;DHT22;6139;51.274;7.128;2022-07-06T05:49:48;14.00;99.90
12152;DHT22;6139;51.274;7.128;2022-07-06T05:51:08;14.10;99.90
12152;DHT22;6139;51.274;7.128;2022-07-06T05:52:10;14.10;99.90
12152;DHT22;6139;51.274;7.128;2022-07-06T05:53:12;14.20;99.90
12152;DHT22;6139;51.274;7.128;2022-07-06T05:54:14;14.20;99.90
12152;DHT22;6139;51.274;7.128;2022-07-06T05:55:15;14.20;99.90
12152;DHT22;6139;51.274;7.128;2022-07-06T05:56:17;14.20;99.90
12152;DHT22;6139;51.274;7.128;2022-07-06T05:57:18;14.20;99.90
12152;DHT22;6139;51.274;7.128;2022-07-06T05:58:20;14.20;99.90
12152;DHT22;6139;51.274;7.128;2022-07-06T05:59:23;14.30;99.90
12152;DHT22;6139;51.274;7.128;2022-07-06T06:00:25;14.30;99.90
12152;DHT22;6139;51.274;7.128;2022-07-06T06:01:30;14.30;99.90
12152;DHT22;6139;51.274;7.128;2022-07-06T06:02:43;14.40;99.90
12152;DHT22;6139;51.274;7.128;2022-07-06T06:03:48;14.40;99.90
12152;DHT22;6139;51.274;7.128;2022-07-06T06:04:50;14.40;99.90
12152;DHT22;6139;51.274;7.128;2022-07-06T06:05:51;14.40;99.90
12152;DHT22;6139;51.274;7.128;2022-07-06T06:06:54;14.40;99.90
12152;DHT22;6139;51.274;7.128;2022-07-06T06:07:55;14.40;99.90
12152;DHT22;6139;51.274;7.128;2022-07-06T06:09:00;14.40;99.90
12152;DHT22;6139;51.274;7.128;2022-07-06T06:10:03;14.50;99.90
12152;DHT22;6139;51.274;7.128;2022-07-06T06:11:04;14.50;99.90
12152;DHT22;6139;51.274;7.128;2022-07-06T06:12:07;14.50;99.90
12152;DHT22;6139;51.274;7.128;2022-07-06T06:13:08;14.60;99.90
12152;DHT22;6139;51.274;7.128;2022-07-06T06:14:10;14.60;99.90
12152;DHT22;6139;51.274;7.128;2022-07-06T06:15:12;14.60;99.90
12152;DHT22;6139;51.274;7.128;2022-07-06T06:16:14;14.60;99.90
12152;DHT22;6139;51.274;7.128;2022-07-06T06:17:16;14.70;99.90
12152;DHT22;6139;51.274;7.128;2022-07-06T06:18:18;14.70;99.90
12152;DHT22;6139;51.274;7.128;2022-07-06T06:19:20;14.70;99.90
12152;DHT22;6139;51.274;7.128;2022-07-06T06:20:21;14.70;99.90
12152;DHT22;6139;51.274;7.128;2022-07-06T06:21:23;14.80;99.90
12152;DHT22;6139;51.274;7.128;2022-07-06T06:22:25;14.80;99.90
12152;DHT22;6139;51.274;7.128;2022-07-06T06:23:26;14.80;99.90
12152;DHT22;6139;51.274;7.128;2022-07-06T06:24:28;14.80;99.90
12152;DHT22;6139;51.274;7.128;2022-07-06T06:25:31;14.80;99.90
12152;DHT22;6139;51.274;7.128;2022-07-06T06:26:33;14.90;99.90
12152;DHT22;6139;51.274;7.128;2022-07-06T06:27:34;14.90;99.90
12152;DHT22;6139;51.274;7.128;2022-07-06T06:28:36;14.90;99.90
12152;DHT22;6139;51.274;7.128;2022-07-06T06:29:37;15.00;99.90
12152;DHT22;6139;51.274;7.128;2022-07-06T06:30:39;15.00;99.90
12152;DHT22;6139;51.274;7.128;2022-07-06T06:31:41;15.10;99.90
12152;DHT22;6139;51.274;7.128;2022-07-06T06:32:42;15.10;99.90
12152;DHT22;6139;51.274;7.128;2022-07-06T06:33:45;15.20;99.90
12152;DHT22;6139;51.274;7.128;2022-07-06T06:34:47;15.20;99.90
12152;DHT22;6139;51.274;7.128;2022-07-06T06:35:50;15.20;99.90
12152;DHT22;6139;51.274;7.128;2022-07-06T06:36:52;15.20;99.90
12152;DHT22;6139;51.274;7.128;2022-07-06T06:37:53;15.20;99.90
12152;DHT22;6139;51.274;7.128;2022-07-06T06:38:55;15.30;99.90
12152;DHT22;6139;51.274;7.128;2022-07-06T06:39:56;15.20;99.90
12152;DHT22;6139;51.274;7.128;2022-07-06T06:40:58;15.20;99.90
12152;DHT22;6139;51.274;7.128;2022-07-06T06:42:02;15.20;99.90
12152;DHT22;6139;51.274;7.128;2022-07-06T06:43:07;15.20;99.90
12152;DHT22;6139;51.274;7.128;2022-07-06T06:44:17;15.20;99.90